Home > Products > Valid Products > TAF

000
FTUS46 KMTR 140529
TAFLVK
TAF
KLVK 140529Z 1406/1506 VRB03KT P6SM FEW250
     FM142000 33011G18KT P6SM SKC
     FM150300 30009KT P6SM SKC=



000
FTUS46 KMTR 140529
TAFSJC
TAF
KSJC 140529Z 1406/1506 31004KT P6SM FEW250
      TEMPO 1412/1416 SCT008 BKN250
     FM141700 30005KT P6SM FEW250
     FM142100 32010G18KT P6SM SKC
     FM150300 31009KT P6SM SKC=



000
FTUS46 KMTR 140529
TAFSTS
TAF
KSTS 140529Z 1406/1506 35016G22KT P6SM FEW250
     FM140800 34006KT P6SM FEW250
     FM141900 33012G18KT P6SM SKC
     FM150400 31011KT P6SM SKC=



000
FTUS46 KMTR 140529
TAFSFO
TAF
KSFO 140529Z 1406/1512 29012G18KT P6SM SCT250
     FM141700 32007KT P6SM FEW250
     FM142100 30018G24KT P6SM SKC
     FM150300 29012G18KT P6SM SKC=



000
FTUS46 KMTR 140529
TAFSNS
TAF
KSNS 140529Z 1406/1506 28007KT 6SM BR FEW250
     FM141700 28009KT P6SM SKC
     FM142000 29011G16KT P6SM SKC
     FM150300 29011KT P6SM SKC=



000
FTUS46 KMTR 140529
TAFMRY
TAF
KMRY 140529Z 1406/1506 VRB03KT P6SM FEW008 SCT250
      TEMPO 1412/1416 6SM BR SCT008 BKN250
     FM141800 30010KT P6SM SKC
     FM150300 29006KT P6SM SKC=



000
FTUS46 KMTR 140529
TAFOAK
TAF
KOAK 140529Z 1406/1512 28009KT P6SM FEW250
     FM142100 28013G20KT P6SM SKC
     FM150300 30008KT P6SM SKC=



000
FTUS46 KMTR 140529
TAFLVK
TAF
KLVK 140529Z 1406/1506 VRB03KT P6SM FEW250
     FM142000 33011G18KT P6SM SKC
     FM150300 30009KT P6SM SKC=



000
FTUS46 KMTR 140529
TAFSFO
TAF
KSFO 140529Z 1406/1512 29012G18KT P6SM SCT250
     FM141700 32007KT P6SM FEW250
     FM142100 30018G24KT P6SM SKC
     FM150300 29012G18KT P6SM SKC=



000
FTUS46 KMTR 140529
TAFSTS
TAF
KSTS 140529Z 1406/1506 35016G22KT P6SM FEW250
     FM140800 34006KT P6SM FEW250
     FM141900 33012G18KT P6SM SKC
     FM150400 31011KT P6SM SKC=



000
FTUS46 KMTR 140529
TAFSJC
TAF
KSJC 140529Z 1406/1506 31004KT P6SM FEW250
      TEMPO 1412/1416 SCT008 BKN250
     FM141700 30005KT P6SM FEW250
     FM142100 32010G18KT P6SM SKC
     FM150300 31009KT P6SM SKC=



000
FTUS46 KMTR 140529
TAFMRY
TAF
KMRY 140529Z 1406/1506 VRB03KT P6SM FEW008 SCT250
      TEMPO 1412/1416 6SM BR SCT008 BKN250
     FM141800 30010KT P6SM SKC
     FM150300 29006KT P6SM SKC=



000
FTUS46 KMTR 140529
TAFSNS
TAF
KSNS 140529Z 1406/1506 28007KT 6SM BR FEW250
     FM141700 28009KT P6SM SKC
     FM142000 29011G16KT P6SM SKC
     FM150300 29011KT P6SM SKC=



000
FTUS46 KMTR 140529
TAFOAK
TAF
KOAK 140529Z 1406/1512 28009KT P6SM FEW250
     FM142100 28013G20KT P6SM SKC
     FM150300 30008KT P6SM SKC=



000
FTUS46 KMTR 140154 AAA
TAFSTS
TAF AMD
KSTS 140154Z 1402/1424 VRB06KT P6SM SCT250
     FM140300 35016G22KT P6SM FEW250
     FM140800 34006KT P6SM FEW250
     FM141900 33012G18KT P6SM SKC=



000
FTUS46 KMTR 140154 AAA
TAFSTS
TAF AMD
KSTS 140154Z 1402/1424 VRB06KT P6SM SCT250
     FM140300 35016G22KT P6SM FEW250
     FM140800 34006KT P6SM FEW250
     FM141900 33012G18KT P6SM SKC=



000
FTUS46 KMTR 132352
TAFOAK
TAF
KOAK 132352Z 1400/1506 28009KT P6SM FEW250
     FM142100 28013G20KT P6SM SKC
     FM150300 30008KT P6SM SKC=



000
FTUS46 KMTR 132352
TAFLVK
TAF
KLVK 132352Z 1400/1424 32008KT P6SM FEW250
     FM140400 VRB03KT P6SM FEW008
     FM142000 33011G18KT P6SM SKC=



000
FTUS46 KMTR 132352
TAFSTS
TAF
KSTS 132352Z 1400/1424 VRB06KT P6SM SCT250
     FM140400 35012KT P6SM FEW250
     FM140800 34006KT P6SM FEW250
     FM141900 33012G18KT P6SM SKC=



000
FTUS46 KMTR 132352
TAFSNS
TAF
KSNS 132352Z 1400/1424 29011KT P6SM SKC
     FM140400 28007KT 6SM BR SKC
     FM141700 28004KT 6SM HZ FEW003
     FM142000 29011G16KT P6SM SKC=



000
FTUS46 KMTR 132352
TAFMRY
TAF
KMRY 132352Z 1400/1424 29006KT P6SM SKC
     FM140400 VRB03KT P6SM SKC
     FM141600 32004KT 6SM HZ FEW002
     FM141800 31007KT P6SM SKC=



000
FTUS46 KMTR 132352
TAFSJC
TAF
KSJC 132352Z 1400/1424 31012KT P6SM FEW250
     FM140400 31004KT P6SM FEW008 FEW250
      TEMPO 1412/1416 SCT008 BKN250
     FM141700 30005KT P6SM FEW250
     FM142100 32010G18KT P6SM SKC=



000
FTUS46 KMTR 132352
TAFSFO
TAF
KSFO 132352Z 1400/1506 29018G25KT P6SM FEW250
     FM140500 29012G18KT P6SM FEW012 SCT250
     FM141700 32007KT P6SM FEW250
     FM142100 30018G24KT P6SM SKC
     FM150300 29012G18KT P6SM SKC=



000
FTUS46 KMTR 132352
TAFSFO
TAF
KSFO 132352Z 1400/1506 29018G25KT P6SM FEW250
     FM140500 29012G18KT P6SM FEW012 SCT250
     FM141700 32007KT P6SM FEW250
     FM142100 30018G24KT P6SM SKC
     FM150300 29012G18KT P6SM SKC=



000
FTUS46 KMTR 132352
TAFLVK
TAF
KLVK 132352Z 1400/1424 32008KT P6SM FEW250
     FM140400 VRB03KT P6SM FEW008
     FM142000 33011G18KT P6SM SKC=



000
FTUS46 KMTR 132352
TAFOAK
TAF
KOAK 132352Z 1400/1506 28009KT P6SM FEW250
     FM142100 28013G20KT P6SM SKC
     FM150300 30008KT P6SM SKC=



000
FTUS46 KMTR 132352
TAFSJC
TAF
KSJC 132352Z 1400/1424 31012KT P6SM FEW250
     FM140400 31004KT P6SM FEW008 FEW250
      TEMPO 1412/1416 SCT008 BKN250
     FM141700 30005KT P6SM FEW250
     FM142100 32010G18KT P6SM SKC=



000
FTUS46 KMTR 132352
TAFSTS
TAF
KSTS 132352Z 1400/1424 VRB06KT P6SM SCT250
     FM140400 35012KT P6SM FEW250
     FM140800 34006KT P6SM FEW250
     FM141900 33012G18KT P6SM SKC=



000
FTUS46 KMTR 132352
TAFSNS
TAF
KSNS 132352Z 1400/1424 29011KT P6SM SKC
     FM140400 28007KT 6SM BR SKC
     FM141700 28004KT 6SM HZ FEW003
     FM142000 29011G16KT P6SM SKC=



000
FTUS46 KMTR 132352
TAFMRY
TAF
KMRY 132352Z 1400/1424 29006KT P6SM SKC
     FM140400 VRB03KT P6SM SKC
     FM141600 32004KT 6SM HZ FEW002
     FM141800 31007KT P6SM SKC=



000
FTUS46 KMTR 132105 AAB
TAFSFO
TAF AMD
KSFO 132105Z 1321/1424 30006KT P6SM FEW010
     FM132200 29018G25KT P6SM FEW010
     FM140500 29012G18KT 6SM BR FEW008
     FM140900 29007KT 6SM BR FEW007
     FM141700 32007KT 6SM HZ FEW010
     FM142100 30018G24KT P6SM SKC=



000
FTUS46 KMTR 132007 AAB
TAFMRY
TAF AMD
KMRY 132007Z 1320/1418 30004KT P6SM FEW003
      TEMPO 1320/1321 2SM BR OVC004
     FM132100 31007KT P6SM SKC
     FM140200 28005KT P6SM SKC
     FM140400 25004KT 6SM BR SKC
     FM140700 VRB03KT 1/4SM FG VV002
     FM141600 32004KT 6SM HZ FEW002=



000
FTUS46 KMTR 131918 AAA
TAFMRY
TAF AMD
KMRY 131918Z 1319/1418 30004KT P6SM FEW003
      TEMPO 1319/1320 5SM BR OVC004
     FM132000 31007KT P6SM SKC
     FM140200 28005KT P6SM SKC
     FM140400 25004KT 6SM BR SKC
     FM140700 VRB03KT 1/4SM FG VV002
     FM141600 32004KT 6SM HZ FEW002=



000
FTUS46 KMTR 131824 AAA
TAFSFO
TAF AMD
KSFO 131824Z 1318/1424 VRB04KT P6SM FEW004 FEW006 SCT010
     FM131900 30006KT P6SM FEW006 FEW010 FEW250
     FM132200 29018G25KT P6SM FEW010
     FM140500 29012G18KT 6SM BR FEW008
     FM140900 29007KT 6SM BR FEW007
     FM141700 32007KT 6SM HZ FEW010
     FM142100 30018G24KT P6SM SKC=



000
FTUS46 KMTR 131720
TAFSNS
TAF
KSNS 131720Z 1318/1418 VRB04KT P6SM FEW004
      TEMPO 1318/1319 1/2SM FG BKN003
     FM132100 29014KT P6SM SKC
     FM140400 28006KT 6SM BR SKC
     FM140700 30004KT 1/4SM FG VV002
     FM141700 28004KT 6SM HZ FEW003=



000
FTUS46 KMTR 131720
TAFLVK
TAF
KLVK 131720Z 1318/1418 VRB03KT P6SM SCT250
     FM132100 32008KT P6SM FEW250
     FM140400 VRB03KT 6SM BR FEW008
     FM141400 06006KT 2SM BR BKN003
     FM141700 05008KT 6SM HZ FEW008=



000
FTUS46 KMTR 131720
TAFMRY
TAF
KMRY 131720Z 1318/1418 30004KT P6SM FEW003
     FM132000 31007KT P6SM SKC
     FM140200 28005KT P6SM SKC
     FM140400 25004KT 6SM BR SKC
     FM140700 VRB03KT 1/4SM FG VV002
     FM141600 32004KT 6SM HZ FEW002=



000
FTUS46 KMTR 131720
TAFSTS
TAF
KSTS 131720Z 1318/1418 VRB04KT P6SM SKC
     FM132200 31009KT P6SM SKC
     FM140200 34010KT P6SM SKC
     FM140400 34006KT P6SM SKC
     FM140900 34006KT 1/4SM FG VV001
     FM141700 34008KT P6SM FEW002=



000
FTUS46 KMTR 131720
TAFSJC
TAF
KSJC 131720Z 1318/1418 30009KT P6SM FEW005 FEW250
      TEMPO 1318/1319 3SM BR FEW001 SCT002
     FM132200 31012KT P6SM FEW250
     FM140400 31004KT P6SM FEW250
     FM141000 30003KT 6SM BR FEW004
     FM141500 32003KT 1SM BR BKN003
     FM141700 30005KT 6SM HZ FEW004=



000
FTUS46 KMTR 131720
TAFOAK
TAF
KOAK 131720Z 1318/1424 29006KT 6SM BR FEW004 BKN008
     FM131900 28008KT P6SM FEW250
     FM132100 28011KT P6SM FEW250
     FM140300 30004KT P6SM SKC
     FM141100 VRB03KT 6SM BR FEW008 SCT012
     FM141400 VRB03KT 5SM HZ SCT006 BKN010
     FM141800 30006KT P6SM FEW010
     FM142100 28013KT P6SM SKC=



000
FTUS46 KMTR 131720
TAFSFO
TAF
KSFO 131720Z 1318/1424 VRB04KT 5SM -DZ BR FEW002 SCT004 OVC007
     FM131900 30008KT 6SM HZ FEW006 SCT250
     FM132200 29018G25KT P6SM FEW010 SCT250
     FM140500 29012G18KT 6SM BR FEW008 FEW250
     FM140900 29007KT 6SM BR FEW007
     FM141700 32007KT 6SM HZ FEW010
     FM142100 30018G24KT P6SM SKC=



000
FTUS46 KMTR 131625 AAA
TAFMRY
TAF AMD
KMRY 131625Z 1316/1412 00000KT P6SM FEW002
      TEMPO 1316/1317 1/2SM FG VV002
     FM131700 30004KT P6SM FEW003
     FM132000 31007KT P6SM SKC
     FM140200 28005KT P6SM SKC
     FM140400 25004KT P6SM SKC
     FM140900 10004KT 1/4SM FG VV002=



000
FTUS46 KMTR 131625 AAA
TAFMRY
TAF AMD
KMRY 131625Z 1316/1412 00000KT P6SM FEW002
      TEMPO 1316/1317 1/2SM FG VV002
     FM131700 30004KT P6SM FEW003
     FM132000 31007KT P6SM SKC
     FM140200 28005KT P6SM SKC
     FM140400 25004KT P6SM SKC
     FM140900 10004KT 1/4SM FG VV002=



000
FTUS46 KMTR 131551 AAC
TAFSFO
TAF AMD
KSFO 131551Z 1316/1418 02006KT 1SM -DZ BR FEW002 SCT004 OVC007
      TEMPO 1316/1317 1/2SM FG VV002
     FM131900 29008KT P6SM FEW006 SCT250
     FM132200 29020KT P6SM FEW010 SCT250
     FM140500 29012KT P6SM FEW010 FEW250
     FM140900 29008KT P6SM SKC=



000
FTUS46 KMTR 131551 AAC
TAFSFO
TAF AMD
KSFO 131551Z 1316/1418 02006KT 1SM -DZ BR FEW002 SCT004 OVC007
      TEMPO 1316/1317 1/2SM FG VV002
     FM131900 29008KT P6SM FEW006 SCT250
     FM132200 29020KT P6SM FEW010 SCT250
     FM140500 29012KT P6SM FEW010 FEW250
     FM140900 29008KT P6SM SKC=



000
FTUS46 KMTR 131507 AAB
TAFSFO
TAF AMD
KSFO 131507Z 1315/1418 02006KT 1SM BR FEW002 SCT004 OVC007
      TEMPO 1315/1317 1/2SM FG VV002
     FM131800 29008KT P6SM FEW006 SCT250
     FM132200 29020KT P6SM FEW010 SCT250
     FM140500 29012KT P6SM FEW010 FEW250
     FM140900 29008KT P6SM SKC=



000
FTUS46 KMTR 131456 AAA
TAFLVK
TAF AMD
KLVK 131456Z 1315/1412 00000KT P6SM SCT002 SCT250
      TEMPO 1315/1317 1/2SM FG VV002
     FM131700 VRB03KT P6SM SCT250
     FM132100 32008KT P6SM FEW250
     FM140300 33003KT P6SM SKC=



000
FTUS46 KMTR 131455 AAA
TAFSJC
TAF AMD
KSJC 131455Z 1315/1412 00000KT 3SM BR FEW001 OVC002
      TEMPO 1315/1316 2SM BR OVC002
     FM131800 30009KT P6SM FEW005 FEW250
     FM132200 31012KT P6SM FEW250
     FM140400 31004KT P6SM FEW250
     FM141000 32003KT 1SM BR BKN003=



000
FTUS46 KMTR 131455 AAA
TAFSJC
TAF AMD
KSJC 131455Z 1315/1412 00000KT 3SM BR FEW001 OVC002
      TEMPO 1315/1316 2SM BR OVC002
     FM131800 30009KT P6SM FEW005 FEW250
     FM132200 31012KT P6SM FEW250
     FM140400 31004KT P6SM FEW250
     FM141000 32003KT 1SM BR BKN003=



000
FTUS46 KMTR 131454 AAA
TAFSTS
TAF AMD
KSTS 131454Z 1315/1412 30003KT P6SM BCFG SCT150
      TEMPO 1315/1318 1SM BR VV001
     FM131800 VRB04KT P6SM SKC
     FM132200 31009KT P6SM SKC
     FM140200 34010KT P6SM SKC
     FM140400 35006KT P6SM SKC
     FM140900 35006KT 1/4SM FG VV001=



000
FTUS46 KMTR 131407 AAA
TAFSFO
TAF AMD
KSFO 131407Z 1314/1418 02006KT 1SM BR FEW002 BKN004
      TEMPO 1314/1317 1/2SM FG VV002
     FM131800 29008KT P6SM FEW006 SCT250
     FM132200 29020KT P6SM FEW010 SCT250
     FM140500 29012KT P6SM FEW010 FEW250
     FM140900 29008KT P6SM SKC=



000
FTUS46 KMTR 131407 AAA
TAFSFO
TAF AMD
KSFO 131407Z 1314/1418 02006KT 1SM BR FEW002 BKN004
      TEMPO 1314/1317 1/2SM FG VV002
     FM131800 29008KT P6SM FEW006 SCT250
     FM132200 29020KT P6SM FEW010 SCT250
     FM140500 29012KT P6SM FEW010 FEW250
     FM140900 29008KT P6SM SKC=



000
FTUS46 KMTR 131307 AAA
TAFOAK
TAF AMD
KOAK 131307Z 1313/1418 00000KT 2SM BR SCT002 OVC004
      TEMPO 1313/1317 1/4SM FG OVC002
     FM131800 29006KT P6SM FEW004 SCT250
     FM132100 28011KT P6SM FEW250
     FM140300 30004KT P6SM SKC
     FM141400 VRB03KT 5SM HZ SCT006 BKN010=



000
FTUS46 KMTR 131139
TAFMRY
TAF
KMRY 131139Z 1312/1412 00000KT 1/4SM FG VV001
     FM131700 30004KT P6SM FEW006
     FM132000 31007KT P6SM SKC
     FM140200 28005KT P6SM SKC
     FM140400 25004KT P6SM SKC
     FM140900 10004KT 1/4SM FG VV002=



000
FTUS46 KMTR 131139
TAFSFO
TAF
KSFO 131139Z 1312/1418 28013KT P6SM FEW004 OVC006
      TEMPO 1312/1316 5SM BR BKN002
     FM131800 29008KT P6SM FEW006 SCT250
     FM132200 29020KT P6SM FEW010 SCT250
     FM140500 29012KT P6SM FEW010 FEW250
     FM140900 29008KT P6SM SKC=



000
FTUS46 KMTR 131139
TAFSJC
TAF
KSJC 131139Z 1312/1412 30008KT 1/2SM FG VV002
      TEMPO 1312/1316 1/4SM FG VV002
     FM131800 30009KT P6SM FEW005 FEW250
     FM132200 31012KT P6SM FEW250
     FM140400 31004KT P6SM FEW250
     FM141000 32003KT 1SM BR BKN003=



000
FTUS46 KMTR 131139
TAFSNS
TAF
KSNS 131139Z 1312/1412 00000KT 1SM BR VV003
      TEMPO 1312/1316 1/2SM FG VV002
     FM131700 VRB04KT P6SM FEW009
     FM132100 29014KT P6SM SKC
     FM140300 28006KT P6SM SKC
     FM140900 30004KT 1SM BR VV002=



000
FTUS46 KMTR 131139
TAFLVK
TAF
KLVK 131139Z 1312/1412 00000KT P6SM SCT250
     FM131700 VRB03KT P6SM SCT250
     FM132100 32008KT P6SM FEW250
     FM140300 33003KT P6SM SKC=



000
FTUS46 KMTR 131139
TAFSJC
TAF
KSJC 131139Z 1312/1412 30008KT 1/2SM FG VV002
      TEMPO 1312/1316 1/4SM FG VV002
     FM131800 30009KT P6SM FEW005 FEW250
     FM132200 31012KT P6SM FEW250
     FM140400 31004KT P6SM FEW250
     FM141000 32003KT 1SM BR BKN003=



000
FTUS46 KMTR 131139
TAFOAK
TAF
KOAK 131139Z 1312/1418 00000KT P6SM SCT006 OVC010
     FM131400 VRB03KT 6SM HZ SCT006 OVC010
     FM131800 29006KT P6SM SCT250
     FM132100 28011KT P6SM FEW250
     FM140300 30004KT P6SM SKC
     FM141400 VRB03KT 5SM HZ SCT006 BKN010=



000
FTUS46 KMTR 131139
TAFSFO
TAF
KSFO 131139Z 1312/1418 28013KT P6SM FEW004 OVC006
      TEMPO 1312/1316 5SM BR BKN002
     FM131800 29008KT P6SM FEW006 SCT250
     FM132200 29020KT P6SM FEW010 SCT250
     FM140500 29012KT P6SM FEW010 FEW250
     FM140900 29008KT P6SM SKC=



000
FTUS46 KMTR 131139
TAFSTS
TAF
KSTS 131139Z 1312/1412 00000KT 3/4SM BR VV001
      TEMPO 1312/1314 1/4SM FG VV001
     FM131400 00000KT 3/4SM BR VV001
      TEMPO 1314/1318 1/4SM FG VV001
     FM131800 VRB04KT P6SM SKC
     FM132200 31009KT P6SM SKC
     FM140200 34010KT P6SM SKC
     FM140400 35006KT P6SM SKC
     FM140900 35006KT 1/4SM FG VV001=



000
FTUS46 KMTR 131139
TAFMRY
TAF
KMRY 131139Z 1312/1412 00000KT 1/4SM FG VV001
     FM131700 30004KT P6SM FEW006
     FM132000 31007KT P6SM SKC
     FM140200 28005KT P6SM SKC
     FM140400 25004KT P6SM SKC
     FM140900 10004KT 1/4SM FG VV002=



000
FTUS46 KMTR 131139
TAFLVK
TAF
KLVK 131139Z 1312/1412 00000KT P6SM SCT250
     FM131700 VRB03KT P6SM SCT250
     FM132100 32008KT P6SM FEW250
     FM140300 33003KT P6SM SKC=



000
FTUS46 KMTR 131139
TAFOAK
TAF
KOAK 131139Z 1312/1418 00000KT P6SM SCT006 OVC010
     FM131400 VRB03KT 6SM HZ SCT006 OVC010
     FM131800 29006KT P6SM SCT250
     FM132100 28011KT P6SM FEW250
     FM140300 30004KT P6SM SKC
     FM141400 VRB03KT 5SM HZ SCT006 BKN010=



000
FTUS46 KMTR 131139
TAFSNS
TAF
KSNS 131139Z 1312/1412 00000KT 1SM BR VV003
      TEMPO 1312/1316 1/2SM FG VV002
     FM131700 VRB04KT P6SM FEW009
     FM132100 29014KT P6SM SKC
     FM140300 28006KT P6SM SKC
     FM140900 30004KT 1SM BR VV002=



000
FTUS46 KMTR 131139
TAFSTS
TAF
KSTS 131139Z 1312/1412 00000KT 3/4SM BR VV001
      TEMPO 1312/1314 1/4SM FG VV001
     FM131400 00000KT 3/4SM BR VV001
      TEMPO 1314/1318 1/4SM FG VV001
     FM131800 VRB04KT P6SM SKC
     FM132200 31009KT P6SM SKC
     FM140200 34010KT P6SM SKC
     FM140400 35006KT P6SM SKC
     FM140900 35006KT 1/4SM FG VV001=



000
FTUS46 KMTR 131101 AAA
TAFSNS
TAF AMD
KSNS 131101Z 1311/1406 00000KT 1SM BR VV003
      TEMPO 1311/1315 1/2SM FG VV002
     FM131700 VRB04KT P6SM FEW009
     FM132100 29014KT P6SM SKC
     FM140300 28006KT P6SM SKC=



000
FTUS46 KMTR 131101 AAA
TAFSNS
TAF AMD
KSNS 131101Z 1311/1406 00000KT 1SM BR VV003
      TEMPO 1311/1315 1/2SM FG VV002
     FM131700 VRB04KT P6SM FEW009
     FM132100 29014KT P6SM SKC
     FM140300 28006KT P6SM SKC=



000
FTUS46 KMTR 131010 AAA
TAFMRY
TAF AMD
KMRY 131010Z 1310/1406 00000KT 1/4SM FG VV001
     FM131600 30004KT P6SM FEW006
     FM132000 31007KT P6SM SKC
     FM140200 28005KT P6SM SKC
     FM140400 25004KT P6SM SKC=



000
FTUS46 KMTR 131009 AAA
TAFSJC
TAF AMD
KSJC 131009Z 1310/1406 30008KT P6SM FEW110 SCT220
      TEMPO 1310/1314 2SM BR BKN003
     FM132000 30009KT P6SM SCT250
     FM140400 31004KT P6SM FEW250=



000
FTUS46 KMTR 131007 AAA
TAFSFO
TAF AMD
KSFO 131007Z 1310/1412 28013KT P6SM FEW001 OVC003
      TEMPO 1310/1314 5SM BR BKN002
     FM131400 28008KT 6SM HZ FEW006 SCT250
     FM132200 29020KT P6SM FEW010 SCT250
     FM140500 29012KT P6SM FEW010 FEW250
     FM140900 29008KT P6SM SKC=



000
FTUS46 KMTR 131006 AAA
TAFOAK
TAF AMD
KOAK 131006Z 1310/1412 00000KT P6SM MIFG FEW008 SCT012 BKN016
     FM131400 VRB03KT 6SM HZ FEW007 SCT012 BKN016
     FM131800 29006KT P6SM SCT250
     FM132100 28011KT P6SM FEW250
     FM140300 30004KT P6SM FEW250
     FM140700 34004KT P6SM SKC=



000
FTUS46 KMTR 131004 AAA
TAFSTS
TAF AMD
KSTS 131004Z 1310/1406 00000KT 3/4SM BR VV001
      TEMPO 1310/1314 1/4SM FG VV001
     FM131400 00000KT 3/4SM BR VV001
      TEMPO 1314/1318 1/4SM FG VV001
     FM131800 VRB04KT P6SM SKC
     FM132200 31009KT P6SM SKC
     FM140200 34010KT P6SM SKC
     FM140400 35006KT P6SM SKC=



000
FTUS46 KMTR 131004 AAA
TAFSTS
TAF AMD
KSTS 131004Z 1310/1406 00000KT 3/4SM BR VV001
      TEMPO 1310/1314 1/4SM FG VV001
     FM131400 00000KT 3/4SM BR VV001
      TEMPO 1314/1318 1/4SM FG VV001
     FM131800 VRB04KT P6SM SKC
     FM132200 31009KT P6SM SKC
     FM140200 34010KT P6SM SKC
     FM140400 35006KT P6SM SKC=



000
FTUS46 KMTR 130529
TAFSTS
TAF
KSTS 130529Z 1306/1406 00000KT P6SM SCT250
      TEMPO 1313/1317 1/2SM FG VV002
     FM131800 VRB04KT P6SM SKC
     FM132200 31009KT P6SM SKC
     FM140200 34010KT P6SM SKC
     FM140400 35006KT P6SM SKC=



000
FTUS46 KMTR 130529
TAFSJC
TAF
KSJC 130529Z 1306/1406 30003KT P6SM FEW110 SCT220
     FM130800 VRB03KT P6SM FEW012 SCT250
     FM132000 30009KT P6SM SCT250
     FM140400 31004KT P6SM FEW250=



000
FTUS46 KMTR 130529
TAFLVK
TAF
KLVK 130529Z 1306/1406 31003KT P6SM SCT250
     FM130700 00000KT P6SM SCT250
     FM131100 00000KT 5SM BR SCT250
     FM131700 VRB03KT P6SM SCT250
     FM132100 32008KT P6SM FEW250
     FM140300 33003KT P6SM SKC=



000
FTUS46 KMTR 130529
TAFMRY
TAF
KMRY 130529Z 1306/1406 00000KT P6SM SCT250
      TEMPO 1312/1316 1/2SM FG VV002
     FM131600 30004KT P6SM FEW006
     FM132000 31007KT P6SM SKC
     FM140200 28005KT P6SM SKC
     FM140400 25004KT P6SM SKC=



000
FTUS46 KMTR 130529
TAFMRY
TAF
KMRY 130529Z 1306/1406 00000KT P6SM SCT250
      TEMPO 1312/1316 1/2SM FG VV002
     FM131600 30004KT P6SM FEW006
     FM132000 31007KT P6SM SKC
     FM140200 28005KT P6SM SKC
     FM140400 25004KT P6SM SKC=



000
FTUS46 KMTR 130529
TAFSJC
TAF
KSJC 130529Z 1306/1406 30003KT P6SM FEW110 SCT220
     FM130800 VRB03KT P6SM FEW012 SCT250
     FM132000 30009KT P6SM SCT250
     FM140400 31004KT P6SM FEW250=



000
FTUS46 KMTR 130529
TAFSNS
TAF
KSNS 130529Z 1306/1406 00000KT P6SM SCT250
      TEMPO 1313/1317 1/2SM FG VV002
     FM131700 VRB04KT P6SM FEW009
     FM132100 29014KT P6SM SKC
     FM140300 28006KT P6SM SKC=



000
FTUS46 KMTR 130529
TAFSFO
TAF
KSFO 130529Z 1306/1412 28015KT P6SM FEW010 FEW015 SCT200
     FM130700 29010KT P6SM SCT250
     FM131400 28008KT 6SM HZ FEW006 SCT250
     FM132200 29020KT P6SM FEW010 SCT250
     FM140500 29012KT P6SM FEW010 FEW250
     FM140900 29008KT P6SM SKC=



000
FTUS46 KMTR 130529
TAFSTS
TAF
KSTS 130529Z 1306/1406 00000KT P6SM SCT250
      TEMPO 1313/1317 1/2SM FG VV002
     FM131800 VRB04KT P6SM SKC
     FM132200 31009KT P6SM SKC
     FM140200 34010KT P6SM SKC
     FM140400 35006KT P6SM SKC=



000
FTUS46 KMTR 130529
TAFLVK
TAF
KLVK 130529Z 1306/1406 31003KT P6SM SCT250
     FM130700 00000KT P6SM SCT250
     FM131100 00000KT 5SM BR SCT250
     FM131700 VRB03KT P6SM SCT250
     FM132100 32008KT P6SM FEW250
     FM140300 33003KT P6SM SKC=



000
FTUS46 KMTR 130529
TAFOAK
TAF
KOAK 130529Z 1306/1412 00000KT P6SM FEW010 BKN230
     FM131400 VRB03KT 6SM HZ FEW007 SCT250
     FM131800 29006KT P6SM SCT250
     FM132100 28011KT P6SM FEW250
     FM140300 30004KT P6SM FEW250
     FM140700 34004KT P6SM SKC=



000
FTUS46 KMTR 130529
TAFSNS
TAF
KSNS 130529Z 1306/1406 00000KT P6SM SCT250
      TEMPO 1313/1317 1/2SM FG VV002
     FM131700 VRB04KT P6SM FEW009
     FM132100 29014KT P6SM SKC
     FM140300 28006KT P6SM SKC=



000
FTUS46 KMTR 130529
TAFSFO
TAF
KSFO 130529Z 1306/1412 28015KT P6SM FEW010 FEW015 SCT200
     FM130700 29010KT P6SM SCT250
     FM131400 28008KT 6SM HZ FEW006 SCT250
     FM132200 29020KT P6SM FEW010 SCT250
     FM140500 29012KT P6SM FEW010 FEW250
     FM140900 29008KT P6SM SKC=



000
FTUS46 KMTR 130529
TAFOAK
TAF
KOAK 130529Z 1306/1412 00000KT P6SM FEW010 BKN230
     FM131400 VRB03KT 6SM HZ FEW007 SCT250
     FM131800 29006KT P6SM SCT250
     FM132100 28011KT P6SM FEW250
     FM140300 30004KT P6SM FEW250
     FM140700 34004KT P6SM SKC=



000
FTUS46 KMTR 130331 AAA
TAFSFO
TAF AMD
KSFO 130331Z 1304/1406 29014KT P6SM FEW016 FEW150 BKN200
     FM130700 29010KT P6SM SCT250
     FM131400 28008KT 6SM HZ FEW006 SCT250
     FM132200 29018KT P6SM FEW010 SCT250
     FM140500 29012KT P6SM FEW010 SCT250=



000
FTUS46 KMTR 130331 AAA
TAFSFO
TAF AMD
KSFO 130331Z 1304/1406 29014KT P6SM FEW016 FEW150 BKN200
     FM130700 29010KT P6SM SCT250
     FM131400 28008KT 6SM HZ FEW006 SCT250
     FM132200 29018KT P6SM FEW010 SCT250
     FM140500 29012KT P6SM FEW010 SCT250=



000
FTUS46 KMTR 122332
TAFSTS
TAF
KSTS 122332Z 1300/1324 16008KT P6SM FEW045 BKN250
     FM130400 VRB03KT P6SM SCT250
     FM130700 00000KT P6SM FEW250
      TEMPO 1309/1313 1/2SM FG VV002
     FM131800 VRB04KT P6SM SKC
     FM132200 29007KT P6SM SKC=



000
FTUS46 KMTR 122332
TAFSJC
TAF
KSJC 122332Z 1300/1324 31006KT P6SM FEW030 BKN100 BKN160
     FM130500 31003KT P6SM SCT250
     FM130800 VRB03KT P6SM FEW012 SCT250
     FM132000 30008KT P6SM SCT250=



000
FTUS46 KMTR 122332
TAFMRY
TAF
KMRY 122332Z 1300/1324 VRB05KT P6SM SCT250
      TEMPO 1303/1306 BKN006
     FM130600 22004KT 2SM BR BKN006
      TEMPO 1308/1312 1/2SM FG
     FM131200 VRB03KT 1/2SM FG VV002
     FM131600 25004KT P6SM FEW008
     FM132000 31007KT P6SM SKC=



000
FTUS46 KMTR 122332
TAFLVK
TAF
KLVK 122332Z 1300/1324 VRB04KT P6SM SCT250
     FM130700 00000KT P6SM SCT250
     FM131100 00000KT 5SM BR SCT250
     FM131700 VRB03KT P6SM SCT250
     FM132100 32008KT P6SM FEW250=



000
FTUS46 KMTR 122332
TAFSNS
TAF
KSNS 122332Z 1300/1324 27011KT P6SM SCT250
      TEMPO 1303/1306 BKN008
     FM130600 28006KT 2SM BR BKN006
      TEMPO 1308/1312 1/2SM FG
     FM131200 VRB04KT 1/2SM FG VV002
     FM131700 VRB04KT P6SM FEW009
     FM132100 29014KT P6SM SKC=



000
FTUS46 KMTR 122332
TAFSFO
TAF
KSFO 122332Z 1300/1406 28017KT P6SM FEW009 SCT150 BKN200
     FM130700 29010KT P6SM SCT250
     FM131400 28008KT 6SM HZ FEW006 SCT250
     FM132200 29018KT P6SM FEW010 SCT250
     FM140500 29012KT P6SM FEW010 SCT250=



000
FTUS46 KMTR 122332
TAFOAK
TAF
KOAK 122332Z 1300/1406 28009KT P6SM FEW160 BKN200
     FM130500 30003KT P6SM BKN200
     FM131400 VRB03KT 6SM HZ FEW007 SCT250
     FM131800 29006KT P6SM SCT250
     FM132100 28010KT P6SM FEW250
     FM140300 30004KT P6SM SCT250=



000
FTUS46 KMTR 122332
TAFSNS
TAF
KSNS 122332Z 1300/1324 27011KT P6SM SCT250
      TEMPO 1303/1306 BKN008
     FM130600 28006KT 2SM BR BKN006
      TEMPO 1308/1312 1/2SM FG
     FM131200 VRB04KT 1/2SM FG VV002
     FM131700 VRB04KT P6SM FEW009
     FM132100 29014KT P6SM SKC=



000
FTUS46 KMTR 122332
TAFMRY
TAF
KMRY 122332Z 1300/1324 VRB05KT P6SM SCT250
      TEMPO 1303/1306 BKN006
     FM130600 22004KT 2SM BR BKN006
      TEMPO 1308/1312 1/2SM FG
     FM131200 VRB03KT 1/2SM FG VV002
     FM131600 25004KT P6SM FEW008
     FM132000 31007KT P6SM SKC=



000
FTUS46 KMTR 122332
TAFSJC
TAF
KSJC 122332Z 1300/1324 31006KT P6SM FEW030 BKN100 BKN160
     FM130500 31003KT P6SM SCT250
     FM130800 VRB03KT P6SM FEW012 SCT250
     FM132000 30008KT P6SM SCT250=



000
FTUS46 KMTR 122332
TAFSFO
TAF
KSFO 122332Z 1300/1406 28017KT P6SM FEW009 SCT150 BKN200
     FM130700 29010KT P6SM SCT250
     FM131400 28008KT 6SM HZ FEW006 SCT250
     FM132200 29018KT P6SM FEW010 SCT250
     FM140500 29012KT P6SM FEW010 SCT250=



000
FTUS46 KMTR 122332
TAFSTS
TAF
KSTS 122332Z 1300/1324 16008KT P6SM FEW045 BKN250
     FM130400 VRB03KT P6SM SCT250
     FM130700 00000KT P6SM FEW250
      TEMPO 1309/1313 1/2SM FG VV002
     FM131800 VRB04KT P6SM SKC
     FM132200 29007KT P6SM SKC=



000
FTUS46 KMTR 122332
TAFLVK
TAF
KLVK 122332Z 1300/1324 VRB04KT P6SM SCT250
     FM130700 00000KT P6SM SCT250
     FM131100 00000KT 5SM BR SCT250
     FM131700 VRB03KT P6SM SCT250
     FM132100 32008KT P6SM FEW250=



000
FTUS46 KMTR 122332
TAFOAK
TAF
KOAK 122332Z 1300/1406 28009KT P6SM FEW160 BKN200
     FM130500 30003KT P6SM BKN200
     FM131400 VRB03KT 6SM HZ FEW007 SCT250
     FM131800 29006KT P6SM SCT250
     FM132100 28010KT P6SM FEW250
     FM140300 30004KT P6SM SCT250=



000
FTUS46 KMTR 122145 AAB
TAFSFO
TAF AMD
KSFO 122145Z 1222/1324 29014KT P6SM SCT250
     FM130400 29010KT P6SM SCT250
     FM130800 29008KT P6SM FEW009 SCT250
     FM131400 28008KT 6SM HZ FEW006 SCT250
     FM132100 29012KT P6SM FEW011 SCT250=



000
FTUS46 KMTR 122031 AAA
TAFSFO
TAF AMD
KSFO 122031Z 1221/1324 04004KT 6SM HZ SCT250
      TEMPO 1221/1223 5SM HZ SCT250
     FM122300 29007KT P6SM SCT250
     FM130800 29008KT P6SM FEW009 SCT250
     FM131400 28008KT 6SM HZ FEW006 SCT250
     FM132100 29012KT P6SM FEW011 SCT250=



000
FTUS46 KMTR 121913 AAA
TAFSNS
TAF AMD
KSNS 121913Z 1219/1318 10011KT P6SM SCT250
     FM122100 31007KT P6SM SCT250
      TEMPO 1305/1306 6SM BR SCT009 BKN250
     FM130600 28006KT 2SM BR BKN006
      TEMPO 1308/1312 1/2SM FG
     FM131200 VRB04KT 1/2SM FG VV002
     FM131700 29007KT P6SM FEW009 SCT250=



000
FTUS46 KMTR 121909 AAA
TAFMRY
TAF AMD
KMRY 121909Z 1219/1318 29004KT P6SM SCT250
      TEMPO 1305/1306 FEW009 SCT250
     FM130600 22004KT 2SM BR BKN006
      TEMPO 1308/1312 1/2SM FG
     FM131200 VRB03KT 1/2SM FG VV002
     FM131600 26004KT P6SM FEW009 SCT250=



000
FTUS46 KMTR 121746
TAFOAK
TAF
KOAK 121746Z 1218/1324 32005KT P6SM FEW010 SCT250
     FM122000 28008KT P6SM SCT250
     FM131400 31005KT 6SM HZ FEW007 SCT250
     FM132100 29008KT P6SM FEW011 SCT250=



000
FTUS46 KMTR 121746
TAFSTS
TAF
KSTS 121746Z 1218/1318 31004KT P6SM SCT250
     FM122100 32005KT P6SM BKN250
     FM130400 VRB03KT P6SM SCT250=



000
FTUS46 KMTR 121746
TAFSJC
TAF
KSJC 121746Z 1218/1318 14003KT P6SM SCT200
     FM122100 31008KT P6SM SCT250
     FM130500 31003KT P6SM SCT250=



000
FTUS46 KMTR 121746
TAFLVK
TAF
KLVK 121746Z 1218/1318 00000KT P6SM FEW250
     FM122000 33008KT P6SM FEW250
     FM130400 VRB03KT P6SM SCT250=



000
FTUS46 KMTR 121746
TAFSFO
TAF
KSFO 121746Z 1218/1324 04004KT P6SM SCT250
     FM122000 29007KT P6SM SCT250
     FM130800 29008KT P6SM FEW009 SCT250
     FM131400 28008KT 6SM HZ FEW006 SCT250
     FM132100 29012KT P6SM FEW011 SCT250=



000
FTUS46 KMTR 121746
TAFMRY
TAF
KMRY 121746Z 1218/1318 29004KT P6SM SCT250
     FM130400 22004KT 2SM BR BKN006
      TEMPO 1308/1312 1/2SM FG
     FM131200 VRB03KT 1/2SM FG VV002
     FM131600 26004KT P6SM FEW009 SCT250=



000
FTUS46 KMTR 121746
TAFSNS
TAF
KSNS 121746Z 1218/1318 10011KT P6SM SCT250
     FM122100 31007KT P6SM SCT250
     FM130400 28006KT 2SM BR BKN006
      TEMPO 1308/1312 1/2SM FG
     FM131200 VRB04KT 1/2SM FG VV002
     FM131700 29007KT P6SM FEW009 SCT250=



000
FTUS46 KMTR 121553 AAC
TAFSNS
TAF AMD
KSNS 121553Z 1216/1312 10004KT 6SM BR FEW006 SCT200
     FM122100 30007KT P6SM SCT200
     FM130400 28006KT 2SM BR BKN006
      TEMPO 1308/1312 1/2SM FG=



000
FTUS46 KMTR 121542 AAC
TAFSTS
TAF AMD
KSTS 121542Z 1216/1312 31004KT P6SM SCT250
     FM122100 32005KT P6SM BKN200
     FM130400 VRB03KT P6SM SCT200=



000
FTUS46 KMTR 121511 AAB
TAFSFO
TAF AMD
KSFO 121511Z 1215/1318 00000KT P6SM FEW008 FEW200
      TEMPO 1215/1218 6SM HZ
     FM121900 29007KT P6SM FEW006 SCT200
     FM122200 29012KT P6SM BKN200
     FM130800 29008KT P6SM FEW009 SCT200
     FM131400 28008KT 6SM HZ FEW006 SCT150=



000
FTUS46 KMTR 121436 AAB
TAFSTS
TAF AMD
KSTS 121436Z 1215/1312 00000KT 6SM BR SKC
      TEMPO 1215/1217 1SM BR VV002
     FM122100 32005KT P6SM BKN200
     FM130400 VRB03KT P6SM SCT200=



000
FTUS46 KMTR 121436 AAB
TAFSNS
TAF AMD
KSNS 121436Z 1215/1312 10004KT 1/4SM FG VV002
     FM121700 12005KT 6SM BR FEW006 SCT200
     FM122100 30007KT P6SM SCT200
     FM130400 28006KT 2SM BR BKN006
      TEMPO 1308/1312 1/2SM FG=



000
FTUS46 KMTR 121401 AAA
TAFSTS
TAF AMD
KSTS 121401Z 1214/1312 00000KT 6SM BR SKC
      TEMPO 1215/1217 1/2SM FG VV002
     FM122100 32005KT P6SM BKN200
     FM130400 VRB03KT P6SM SCT200=



000
FTUS46 KMTR 121359 AAA
TAFMRY
TAF AMD
KMRY 121359Z 1214/1312 10007KT P6SM SKC
     FM121700 VRB03KT P6SM FEW006 SCT150
     FM122100 31008KT P6SM SCT200
     FM130400 22004KT 2SM BR BKN006
      TEMPO 1308/1312 1/2SM FG=



000
FTUS46 KMTR 121359 AAA
TAFSFO
TAF AMD
KSFO 121359Z 1214/1318 00000KT P6SM FEW008 FEW200
      TEMPO 1214/1218 6SM HZ
     FM121900 29007KT P6SM FEW006 SCT200
     FM122200 29012KT P6SM BKN200
     FM130800 29008KT P6SM FEW009 SCT200
     FM131400 28008KT 6SM HZ FEW006 SCT150=



000
FTUS46 KMTR 121359 AAA
TAFSFO
TAF AMD
KSFO 121359Z 1214/1318 00000KT P6SM FEW008 FEW200
      TEMPO 1214/1218 6SM HZ
     FM121900 29007KT P6SM FEW006 SCT200
     FM122200 29012KT P6SM BKN200
     FM130800 29008KT P6SM FEW009 SCT200
     FM131400 28008KT 6SM HZ FEW006 SCT150=



000
FTUS46 KMTR 121359 AAA
TAFSNS
TAF AMD
KSNS 121359Z 1214/1312 10004KT 1/2SM FG VV002
     FM121700 12005KT 6SM BR FEW006 SCT200
     FM122100 30007KT P6SM SCT200
     FM130400 28006KT 2SM BR BKN006
      TEMPO 1308/1312 1/2SM FG=



000
FTUS46 KMTR 121141
TAFSNS
TAF
KSNS 121141Z 1212/1312 12004KT 1/4SM FG VV002
     FM121700 12005KT 6SM BR FEW006 SCT200
     FM122100 30007KT P6SM SCT200
     FM130400 28006KT 2SM BR BKN006
      TEMPO 1308/1312 1/2SM FG=



000
FTUS46 KMTR 121141
TAFMRY
TAF
KMRY 121141Z 1212/1312 09008KT P6SM SCT002
      TEMPO 1212/1214 1/4SM FG
     FM121700 VRB03KT P6SM FEW006 SCT150
     FM122100 31008KT P6SM SCT200
     FM130400 22004KT 2SM BR BKN006
      TEMPO 1308/1312 1/2SM FG=



000
FTUS46 KMTR 121141
TAFSNS
TAF
KSNS 121141Z 1212/1312 12004KT 1/4SM FG VV002
     FM121700 12005KT 6SM BR FEW006 SCT200
     FM122100 30007KT P6SM SCT200
     FM130400 28006KT 2SM BR BKN006
      TEMPO 1308/1312 1/2SM FG=



000
FTUS46 KMTR 121141
TAFMRY
TAF
KMRY 121141Z 1212/1312 09008KT P6SM SCT002
      TEMPO 1212/1214 1/4SM FG
     FM121700 VRB03KT P6SM FEW006 SCT150
     FM122100 31008KT P6SM SCT200
     FM130400 22004KT 2SM BR BKN006
      TEMPO 1308/1312 1/2SM FG=



000
FTUS46 KMTR 121133
TAFLVK
TAF
KLVK 121133Z 1212/1312 00000KT 6SM BR SKC
      TEMPO 1214/1218 4SM HZ
     FM122000 33008KT P6SM FEW200
     FM130400 VRB03KT P6SM SCT200=



000
FTUS46 KMTR 121133
TAFLVK
TAF
KLVK 121133Z 1212/1312 00000KT 6SM BR SKC
      TEMPO 1214/1218 4SM HZ
     FM122000 33008KT P6SM FEW200
     FM130400 VRB03KT P6SM SCT200=



000
FTUS46 KMTR 121130
TAFSJC
TAF
KSJC 121130Z 1212/1312 14003KT P6SM SKC
     FM122100 31008KT P6SM SCT200
     FM130500 31003KT P6SM SCT200=



000
FTUS46 KMTR 121130
TAFSJC
TAF
KSJC 121130Z 1212/1312 14003KT P6SM SKC
     FM122100 31008KT P6SM SCT200
     FM130500 31003KT P6SM SCT200=



000
FTUS46 KMTR 121127
TAFOAK
TAF
KOAK 121127Z 1212/1318 VRB03KT P6SM FEW007
      TEMPO 1214/1218 6SM HZ
     FM122000 28008KT P6SM SCT200
     FM130500 30005KT P6SM SCT200
     FM131400 31005KT 6SM HZ FEW007 SCT150=



000
FTUS46 KMTR 121127
TAFSTS
TAF
KSTS 121127Z 1212/1312 05003KT 3SM BR SKC
      TEMPO 1213/1217 1/2SM FG VV002
     FM122100 32005KT P6SM BKN200
     FM130400 VRB03KT P6SM SCT200=



000
FTUS46 KMTR 121127
TAFSFO
TAF
KSFO 121127Z 1212/1318 VRB03KT P6SM FEW003 FEW200
      TEMPO 1214/1218 6SM HZ
     FM121900 29007KT P6SM FEW006 SCT200
     FM122200 29012KT P6SM BKN200
     FM130800 29008KT P6SM FEW009 SCT200
     FM131400 28008KT 6SM HZ FEW006 SCT150=



000
FTUS46 KMTR 121127
TAFSTS
TAF
KSTS 121127Z 1212/1312 05003KT 3SM BR SKC
      TEMPO 1213/1217 1/2SM FG VV002
     FM122100 32005KT P6SM BKN200
     FM130400 VRB03KT P6SM SCT200=



000
FTUS46 KMTR 121127
TAFOAK
TAF
KOAK 121127Z 1212/1318 VRB03KT P6SM FEW007
      TEMPO 1214/1218 6SM HZ
     FM122000 28008KT P6SM SCT200
     FM130500 30005KT P6SM SCT200
     FM131400 31005KT 6SM HZ FEW007 SCT150=



000
FTUS46 KMTR 121127
TAFSFO
TAF
KSFO 121127Z 1212/1318 VRB03KT P6SM FEW003 FEW200
      TEMPO 1214/1218 6SM HZ
     FM121900 29007KT P6SM FEW006 SCT200
     FM122200 29012KT P6SM BKN200
     FM130800 29008KT P6SM FEW009 SCT200
     FM131400 28008KT 6SM HZ FEW006 SCT150=



000
FTUS46 KMTR 120902 AAA
TAFSFO
TAF AMD
KSFO 120902Z 1209/1312 28005KT P6SM FEW003 FEW200
     FM121900 29007KT P6SM SCT200
     FM122200 29012KT P6SM BKN200
     FM130800 29008KT P6SM FEW009 SCT200=



000
FTUS46 KMTR 120617 AAA
TAFMRY
TAF AMD
KMRY 120617Z 1206/1306 00000KT 1/4SM FG VV001
      TEMPO 1210/1214 1/2SM FG
     FM121700 VRB03KT P6SM FEW006 SCT150
     FM122100 31008KT P6SM SCT200
     FM130200 22004KT P6SM BKN010=



000
FTUS46 KMTR 120617 AAA
TAFMRY
TAF AMD
KMRY 120617Z 1206/1306 00000KT 1/4SM FG VV001
      TEMPO 1210/1214 1/2SM FG
     FM121700 VRB03KT P6SM FEW006 SCT150
     FM122100 31008KT P6SM SCT200
     FM130200 22004KT P6SM BKN010=



000
FTUS46 KMTR 120540
TAFSJC
TAF
KSJC 120540Z 1206/1306 33004KT P6SM FEW090 SCT140 BKN240
     FM120900 VRB03KT P6SM SCT150
     FM122100 31008KT P6SM SCT200
     FM130500 31003KT P6SM SCT200=



000
FTUS46 KMTR 120540
TAFMRY
TAF
KMRY 120540Z 1206/1306 00000KT 3/4SM BR OVC001
      TEMPO 1210/1214 1/2SM FG
     FM121700 VRB03KT P6SM FEW006 SCT150
     FM122100 31008KT P6SM SCT200
     FM130200 22004KT P6SM BKN010=



000
FTUS46 KMTR 120540
TAFSFO
TAF
KSFO 120540Z 1206/1312 29012KT P6SM FEW160 BKN200
     FM120800 28008KT P6SM SCT200
     FM121100 VRB03KT P6SM FEW006 BKN200
     FM121900 29007KT P6SM SCT200
     FM122200 29013KT P6SM BKN200
     FM130800 29008KT P6SM FEW009 SCT200=



000
FTUS46 KMTR 120540
TAFOAK
TAF
KOAK 120540Z 1206/1312 31003KT P6SM BKN200
     FM122000 28008KT P6SM SCT200
     FM130500 30005KT P6SM SCT200=



000
FTUS46 KMTR 120540
TAFSFO
TAF
KSFO 120540Z 1206/1312 29012KT P6SM FEW160 BKN200
     FM120800 28008KT P6SM SCT200
     FM121100 VRB03KT P6SM FEW006 BKN200
     FM121900 29007KT P6SM SCT200
     FM122200 29013KT P6SM BKN200
     FM130800 29008KT P6SM FEW009 SCT200=



000
FTUS46 KMTR 120540
TAFSNS
TAF
KSNS 120540Z 1206/1306 28008KT 1/4SM FG VV002
     FM121700 12005KT 6SM BR FEW006 SCT200
     FM122100 30007KT P6SM SCT200
     FM130400 28006KT P6SM BKN010=



000
FTUS46 KMTR 120540
TAFSTS
TAF
KSTS 120540Z 1206/1306 18003KT P6SM SKC
     FM122100 32005KT P6SM BKN200
     FM130400 VRB03KT P6SM SCT200=



000
FTUS46 KMTR 120540
TAFMRY
TAF
KMRY 120540Z 1206/1306 00000KT 3/4SM BR OVC001
      TEMPO 1210/1214 1/2SM FG
     FM121700 VRB03KT P6SM FEW006 SCT150
     FM122100 31008KT P6SM SCT200
     FM130200 22004KT P6SM BKN010=



000
FTUS46 KMTR 120540
TAFSJC
TAF
KSJC 120540Z 1206/1306 33004KT P6SM FEW090 SCT140 BKN240
     FM120900 VRB03KT P6SM SCT150
     FM122100 31008KT P6SM SCT200
     FM130500 31003KT P6SM SCT200=



000
FTUS46 KMTR 120540
TAFLVK
TAF
KLVK 120540Z 1206/1306 09003KT P6SM SCT200
     FM122000 33006KT P6SM FEW200
     FM130400 VRB03KT P6SM SCT200=



000
FTUS46 KMTR 120540
TAFSNS
TAF
KSNS 120540Z 1206/1306 28008KT 1/4SM FG VV002
     FM121700 12005KT 6SM BR FEW006 SCT200
     FM122100 30007KT P6SM SCT200
     FM130400 28006KT P6SM BKN010=



000
FTUS46 KMTR 120540
TAFSTS
TAF
KSTS 120540Z 1206/1306 18003KT P6SM SKC
     FM122100 32005KT P6SM BKN200
     FM130400 VRB03KT P6SM SCT200=



000
FTUS46 KMTR 120540
TAFLVK
TAF
KLVK 120540Z 1206/1306 09003KT P6SM SCT200
     FM122000 33006KT P6SM FEW200
     FM130400 VRB03KT P6SM SCT200=



000
FTUS46 KMTR 120540
TAFOAK
TAF
KOAK 120540Z 1206/1312 31003KT P6SM BKN200
     FM122000 28008KT P6SM SCT200
     FM130500 30005KT P6SM SCT200=



000
FTUS46 KMTR 120422 AAA
TAFMRY
TAF AMD
KMRY 120422Z 1204/1224 00000KT 2SM BR BKN001
      TEMPO 1210/1214 1/2SM FG
     FM121500 VRB03KT P6SM FEW200
     FM122100 31008KT P6SM SCT200=



000
FTUS46 KMTR 120422 AAA
TAFMRY
TAF AMD
KMRY 120422Z 1204/1224 00000KT 2SM BR BKN001
      TEMPO 1210/1214 1/2SM FG
     FM121500 VRB03KT P6SM FEW200
     FM122100 31008KT P6SM SCT200=



000
FTUS46 KMTR 120310 AAA
TAFSFO
TAF AMD
KSFO 120310Z 1203/1306 29008KT P6SM FEW150 BKN200
     FM120800 28005KT P6SM SCT200
     FM121100 VRB03KT P6SM FEW006 BKN200
     FM121900 28008KT P6SM SCT200
     FM122200 29013KT P6SM BKN200=



000
FTUS46 KMTR 112340
TAFSTS
TAF
KSTS 112340Z 1200/1224 20004KT P6SM FEW200
     FM120400 00000KT P6SM SCT200
     FM122100 32005KT P6SM BKN200=



000
FTUS46 KMTR 112340
TAFOAK
TAF
KOAK 112340Z 1200/1306 01005KT P6SM SCT200
     FM120100 28008KT P6SM SCT200
     FM120300 28003KT P6SM FEW200
     FM121100 00000KT P6SM SCT200
     FM122100 28008KT P6SM SCT200=



000
FTUS46 KMTR 112340
TAFSNS
TAF
KSNS 112340Z 1200/1224 27008KT P6SM SCT200
     FM120600 11005KT P6SM SCT250
     FM122100 30007KT P6SM SCT200=



000
FTUS46 KMTR 112340
TAFMRY
TAF
KMRY 112340Z 1200/1224 28005KT P6SM SCT200
     FM120300 21003KT P6SM SKC
     FM120600 VRB03KT P6SM OVC010
     FM121500 VRB03KT P6SM FEW200
     FM122100 31008KT P6SM SCT200=



000
FTUS46 KMTR 112340
TAFLVK
TAF
KLVK 112340Z 1200/1224 05007KT P6SM FEW200
     FM120200 VRB03KT P6SM FEW200
     FM122000 33006KT P6SM FEW200=



000
FTUS46 KMTR 112340
TAFSFO
TAF
KSFO 112340Z 1200/1306 04009KT P6SM BKN200
     FM120100 29010KT P6SM BKN200
     FM120800 28005KT P6SM SCT200
     FM121100 VRB03KT P6SM BKN200
     FM121900 28008KT P6SM SCT200=



000
FTUS46 KMTR 112340
TAFSJC
TAF
KSJC 112340Z 1200/1224 31007KT P6SM SCT200
     FM120500 VRB03KT P6SM FEW200
     FM122100 31008KT P6SM SCT200=



000
FTUS46 KMTR 112340
TAFSTS
TAF
KSTS 112340Z 1200/1224 20004KT P6SM FEW200
     FM120400 00000KT P6SM SCT200
     FM122100 32005KT P6SM BKN200=



000
FTUS46 KMTR 112340
TAFSNS
TAF
KSNS 112340Z 1200/1224 27008KT P6SM SCT200
     FM120600 11005KT P6SM SCT250
     FM122100 30007KT P6SM SCT200=



000
FTUS46 KMTR 112340
TAFMRY
TAF
KMRY 112340Z 1200/1224 28005KT P6SM SCT200
     FM120300 21003KT P6SM SKC
     FM120600 VRB03KT P6SM OVC010
     FM121500 VRB03KT P6SM FEW200
     FM122100 31008KT P6SM SCT200=



000
FTUS46 KMTR 112340
TAFLVK
TAF
KLVK 112340Z 1200/1224 05007KT P6SM FEW200
     FM120200 VRB03KT P6SM FEW200
     FM122000 33006KT P6SM FEW200=



000
FTUS46 KMTR 112340
TAFOAK
TAF
KOAK 112340Z 1200/1306 01005KT P6SM SCT200
     FM120100 28008KT P6SM SCT200
     FM120300 28003KT P6SM FEW200
     FM121100 00000KT P6SM SCT200
     FM122100 28008KT P6SM SCT200=



000
FTUS46 KMTR 112340
TAFSFO
TAF
KSFO 112340Z 1200/1306 04009KT P6SM BKN200
     FM120100 29010KT P6SM BKN200
     FM120800 28005KT P6SM SCT200
     FM121100 VRB03KT P6SM BKN200
     FM121900 28008KT P6SM SCT200=



000
FTUS46 KMTR 112340
TAFSJC
TAF
KSJC 112340Z 1200/1224 31007KT P6SM SCT200
     FM120500 VRB03KT P6SM FEW200
     FM122100 31008KT P6SM SCT200=



000
FTUS46 KMTR 112100 AAA
TAFSFO
TAF AMD
KSFO 112100Z 1121/1224 01004KT P6SM FEW200
     FM112300 29009KT P6SM SCT200
     FM120800 28005KT P6SM SCT200
     FM121100 VRB03KT P6SM SCT200
     FM121900 28008KT P6SM SCT200=



000
FTUS46 KMTR 111933 AAA
TAFSNS
TAF AMD
KSNS 111933Z 1120/1218 12012KT P6SM SKC
     FM112100 27008KT P6SM SCT200
     FM120600 11005KT P6SM SCT250=



000
FTUS46 KMTR 111727
TAFOAK
TAF
KOAK 111727Z 1118/1224 25005KT P6SM SCT200
     FM112100 28008KT P6SM SCT200
     FM120300 28003KT P6SM FEW200
     FM121100 00000KT P6SM SCT200
     FM122100 28008KT P6SM SCT200=



000
FTUS46 KMTR 111727
TAFMRY
TAF
KMRY 111727Z 1118/1218 28005KT P6SM SCT200
     FM120300 21003KT P6SM SKC
     FM121000 VRB03KT P6SM OVC010
     FM121600 VRB03KT P6SM FEW200=



000
FTUS46 KMTR 111727
TAFSTS
TAF
KSTS 111727Z 1118/1218 VRB03KT P6SM FEW200
     FM112100 20004KT P6SM FEW200
     FM120400 00000KT P6SM BKN200=



000
FTUS46 KMTR 111727
TAFSFO
TAF
KSFO 111727Z 1118/1224 VRB05KT P6SM SCT200
     FM112100 29009KT P6SM SCT200
     FM120800 28005KT P6SM SCT200
     FM121100 VRB03KT P6SM SCT200
     FM121900 28008KT P6SM SCT200=



000
FTUS46 KMTR 111727
TAFLVK
TAF
KLVK 111727Z 1118/1218 00000KT P6SM FEW200
     FM111900 VRB03KT P6SM FEW200
     FM112100 05007KT P6SM FEW200
     FM120200 VRB03KT P6SM FEW200=



000
FTUS46 KMTR 111727
TAFSJC
TAF
KSJC 111727Z 1118/1218 16005KT P6SM FEW060 SCT090
     FM112000 31007KT P6SM SCT200
     FM120500 VRB03KT P6SM FEW200=



000
FTUS46 KMTR 111727
TAFSNS
TAF
KSNS 111727Z 1118/1218 09012KT P6SM SKC
     FM112000 27008KT P6SM SCT200
     FM120600 11005KT P6SM SCT250=



000
FTUS46 KMTR 111727
TAFOAK
TAF
KOAK 111727Z 1118/1224 25005KT P6SM SCT200
     FM112100 28008KT P6SM SCT200
     FM120300 28003KT P6SM FEW200
     FM121100 00000KT P6SM SCT200
     FM122100 28008KT P6SM SCT200=



000
FTUS46 KMTR 111727
TAFSNS
TAF
KSNS 111727Z 1118/1218 09012KT P6SM SKC
     FM112000 27008KT P6SM SCT200
     FM120600 11005KT P6SM SCT250=



000
FTUS46 KMTR 111727
TAFSJC
TAF
KSJC 111727Z 1118/1218 16005KT P6SM FEW060 SCT090
     FM112000 31007KT P6SM SCT200
     FM120500 VRB03KT P6SM FEW200=



000
FTUS46 KMTR 111727
TAFMRY
TAF
KMRY 111727Z 1118/1218 28005KT P6SM SCT200
     FM120300 21003KT P6SM SKC
     FM121000 VRB03KT P6SM OVC010
     FM121600 VRB03KT P6SM FEW200=



000
FTUS46 KMTR 111727
TAFSFO
TAF
KSFO 111727Z 1118/1224 VRB05KT P6SM SCT200
     FM112100 29009KT P6SM SCT200
     FM120800 28005KT P6SM SCT200
     FM121100 VRB03KT P6SM SCT200
     FM121900 28008KT P6SM SCT200=



000
FTUS46 KMTR 111727
TAFSTS
TAF
KSTS 111727Z 1118/1218 VRB03KT P6SM FEW200
     FM112100 20004KT P6SM FEW200
     FM120400 00000KT P6SM BKN200=



000
FTUS46 KMTR 111727
TAFLVK
TAF
KLVK 111727Z 1118/1218 00000KT P6SM FEW200
     FM111900 VRB03KT P6SM FEW200
     FM112100 05007KT P6SM FEW200
     FM120200 VRB03KT P6SM FEW200=



000
FTUS46 KMTR 111500 AAA
TAFSFO
TAF AMD
KSFO 111500Z 1115/1218 VRB05KT P6SM SCT200
     FM112100 29009KT P6SM SCT200
     FM120800 28005KT P6SM SCT200=



000
FTUS46 KMTR 111500 AAA
TAFSFO
TAF AMD
KSFO 111500Z 1115/1218 VRB05KT P6SM SCT200
     FM112100 29009KT P6SM SCT200
     FM120800 28005KT P6SM SCT200=



000
FTUS46 KMTR 111130
TAFMRY
TAF
KMRY 111130Z 1112/1212 00000KT P6SM SKC
     FM111800 28005KT P6SM SCT200
     FM120300 21003KT P6SM SKC
     FM120800 15003KT P6SM SKC=



000
FTUS46 KMTR 111130
TAFSNS
TAF
KSNS 111130Z 1112/1212 09012KT P6SM SKC
     FM112000 27008KT P6SM SCT200
     FM120600 11005KT P6SM SCT250=



000
FTUS46 KMTR 111130
TAFSTS
TAF
KSTS 111130Z 1112/1212 VRB03KT P6SM FEW200
     FM112100 20004KT P6SM FEW200
     FM120400 00000KT P6SM BKN200=



000
FTUS46 KMTR 111130
TAFSFO
TAF
KSFO 111130Z 1112/1218 VRB03KT P6SM SCT200
     FM112100 29009KT P6SM SCT200
     FM120800 28005KT P6SM SCT200=



000
FTUS46 KMTR 111130
TAFSTS
TAF
KSTS 111130Z 1112/1212 VRB03KT P6SM FEW200
     FM112100 20004KT P6SM FEW200
     FM120400 00000KT P6SM BKN200=



000
FTUS46 KMTR 111130
TAFLVK
TAF
KLVK 111130Z 1112/1212 00000KT P6SM FEW200
     FM111900 VRB03KT P6SM FEW200
     FM112100 05007KT P6SM FEW200
     FM120200 VRB03KT P6SM FEW200
     FM120500 00000KT P6SM FEW200=



000
FTUS46 KMTR 111130
TAFOAK
TAF
KOAK 111130Z 1112/1218 VRB03KT P6SM SCT200
     FM111700 25005KT P6SM SCT200
     FM112100 28008KT P6SM SCT200
     FM120300 28003KT P6SM FEW200
     FM121100 00000KT P6SM SCT200=



000
FTUS46 KMTR 111130
TAFSNS
TAF
KSNS 111130Z 1112/1212 09012KT P6SM SKC
     FM112000 27008KT P6SM SCT200
     FM120600 11005KT P6SM SCT250=



000
FTUS46 KMTR 111130
TAFSJC
TAF
KSJC 111130Z 1112/1212 VRB03KT P6SM FEW200
     FM111400 00000KT P6SM FEW150 SCT200
     FM112000 31007KT P6SM SCT200
     FM120500 00000KT P6SM FEW200=



000
FTUS46 KMTR 111130
TAFOAK
TAF
KOAK 111130Z 1112/1218 VRB03KT P6SM SCT200
     FM111700 25005KT P6SM SCT200
     FM112100 28008KT P6SM SCT200
     FM120300 28003KT P6SM FEW200
     FM121100 00000KT P6SM SCT200=



000
FTUS46 KMTR 111130
TAFLVK
TAF
KLVK 111130Z 1112/1212 00000KT P6SM FEW200
     FM111900 VRB03KT P6SM FEW200
     FM112100 05007KT P6SM FEW200
     FM120200 VRB03KT P6SM FEW200
     FM120500 00000KT P6SM FEW200=



000
FTUS46 KMTR 111130
TAFSJC
TAF
KSJC 111130Z 1112/1212 VRB03KT P6SM FEW200
     FM111400 00000KT P6SM FEW150 SCT200
     FM112000 31007KT P6SM SCT200
     FM120500 00000KT P6SM FEW200=



000
FTUS46 KMTR 111130
TAFMRY
TAF
KMRY 111130Z 1112/1212 00000KT P6SM SKC
     FM111800 28005KT P6SM SCT200
     FM120300 21003KT P6SM SKC
     FM120800 15003KT P6SM SKC=



000
FTUS46 KMTR 111130
TAFSFO
TAF
KSFO 111130Z 1112/1218 VRB03KT P6SM SCT200
     FM112100 29009KT P6SM SCT200
     FM120800 28005KT P6SM SCT200=



000
FTUS46 KMTR 110900 AAA
TAFSFO
TAF AMD
KSFO 110900Z 1109/1212 00000KT P6SM SCT200
     FM111700 VRB03KT P6SM SCT200
     FM112100 29008KT P6SM SCT200
     FM120400 26006KT P6SM FEW200=



    US Dept of Commerce
    National Oceanic and Atmospheric Administration
    National Weather Service
    1325 East West Highway
    Silver Spring, MD 20910
    Page Author: NWS Internet Services Team
Disclaimer
Information Quality
Credits
Glossary
Privacy Policy
Freedom of Information Act (FOIA)
About Us
Career Opportunities